DR355 LSZB-LSZB
Flight info
| Callsign | DR355 |
|---|---|
| Flight time | 0h 40m |
| Altitude | 13000 |
| Route | LSZB/32 DCT 463326N0075007E LSZB/32 |
| Aircraft | BE58/L-SDFGRY/C |
Departure
| Time | 2026-04-24 11:39 |
|---|---|
| Airport | Bern Airport (LSZB) |
Arrival
| Time | 2026-04-24 12:19 |
|---|---|
| Airport | Bern Airport (LSZB) |
| Time | Latitude | Longitude | Altitude | Speed | Heading |
|---|---|---|---|---|---|
| 2026-04-24 10:58 | 46.91153 | 7.50217 | 1675 ft | 0 kts | 283° |
| 2026-04-24 11:35 | 46.91151 | 7.50207 | 1680 ft | 5 kts | 231° |
| 2026-04-24 11:35 | 46.91118 | 7.50224 | 1678 ft | 6 kts | 136° |
| 2026-04-24 11:35 | 46.91085 | 7.50266 | 1675 ft | 9 kts | 141° |
| 2026-04-24 11:35 | 46.91035 | 7.50327 | 1675 ft | 9 kts | 144° |
| 2026-04-24 11:36 | 46.90985 | 7.50382 | 1675 ft | 9 kts | 140° |
| 2026-04-24 11:36 | 46.90958 | 7.50410 | 1675 ft | 0 kts | 150° |
| 2026-04-24 11:37 | 46.90953 | 7.50414 | 1675 ft | 6 kts | 160° |
| 2026-04-24 11:38 | 46.90913 | 7.50371 | 1674 ft | 8 kts | 229° |
| 2026-04-24 11:38 | 46.90928 | 7.50305 | 1674 ft | 9 kts | 319° |
| 2026-04-24 11:38 | 46.91074 | 7.50119 | 1677 ft | 67 kts | 322° |
| 2026-04-24 11:38 | 46.91610 | 7.49503 | 1859 ft | 114 kts | 325° |
| 2026-04-24 11:39 | 46.92333 | 7.48770 | 2153 ft | 141 kts | 323° |
| 2026-04-24 11:39 | 46.93097 | 7.47862 | 2789 ft | 141 kts | 321° |
| 2026-04-24 11:39 | 46.93622 | 7.46648 | 3477 ft | 149 kts | 279° |
| 2026-04-24 11:39 | 46.93279 | 7.45240 | 4071 ft | 154 kts | 227° |
| 2026-04-24 11:40 | 46.92488 | 7.44160 | 4698 ft | 156 kts | 217° |
| 2026-04-24 11:40 | 46.91505 | 7.43714 | 5139 ft | 151 kts | 167° |
| 2026-04-24 11:40 | 46.90705 | 7.44559 | 5582 ft | 144 kts | 118° |
| 2026-04-24 11:40 | 46.90279 | 7.45902 | 6005 ft | 145 kts | 114° |
| 2026-04-24 11:41 | 46.89872 | 7.47228 | 6399 ft | 146 kts | 114° |
| 2026-04-24 11:41 | 46.89446 | 7.48602 | 6781 ft | 148 kts | 113° |
| 2026-04-24 11:41 | 46.89031 | 7.49985 | 7113 ft | 149 kts | 114° |
| 2026-04-24 11:41 | 46.88617 | 7.51360 | 7451 ft | 150 kts | 114° |
| 2026-04-24 11:42 | 46.88121 | 7.52706 | 7669 ft | 152 kts | 126° |
| 2026-04-24 11:42 | 46.87328 | 7.53738 | 7927 ft | 155 kts | 144° |
| 2026-04-24 11:42 | 46.86425 | 7.54618 | 8219 ft | 156 kts | 145° |
| 2026-04-24 11:42 | 46.85516 | 7.55491 | 8511 ft | 157 kts | 145° |
| 2026-04-24 11:43 | 46.84596 | 7.56364 | 8755 ft | 159 kts | 146° |
| 2026-04-24 11:43 | 46.83665 | 7.57237 | 9061 ft | 160 kts | 145° |
| 2026-04-24 11:43 | 46.82729 | 7.58121 | 9347 ft | 160 kts | 145° |
| 2026-04-24 11:43 | 46.81787 | 7.59007 | 9664 ft | 161 kts | 146° |
| 2026-04-24 11:44 | 46.80847 | 7.59910 | 9945 ft | 163 kts | 145° |
| 2026-04-24 11:44 | 46.79886 | 7.60811 | 10175 ft | 165 kts | 145° |
| 2026-04-24 11:44 | 46.78926 | 7.61710 | 10420 ft | 163 kts | 146° |
| 2026-04-24 11:44 | 46.77971 | 7.62612 | 10571 ft | 164 kts | 144° |
| 2026-04-24 11:45 | 46.77009 | 7.63525 | 10804 ft | 166 kts | 144° |
| 2026-04-24 11:45 | 46.76044 | 7.64436 | 11001 ft | 166 kts | 145° |
| 2026-04-24 11:45 | 46.75085 | 7.65336 | 11162 ft | 166 kts | 145° |
| 2026-04-24 11:45 | 46.74114 | 7.66257 | 11317 ft | 167 kts | 145° |
| 2026-04-24 11:46 | 46.73141 | 7.67181 | 11562 ft | 167 kts | 146° |
| 2026-04-24 11:46 | 46.72157 | 7.68096 | 11750 ft | 168 kts | 145° |
| 2026-04-24 11:46 | 46.71169 | 7.69026 | 11927 ft | 169 kts | 145° |
| 2026-04-24 11:46 | 46.70186 | 7.69955 | 12144 ft | 169 kts | 146° |
| 2026-04-24 11:47 | 46.69195 | 7.70886 | 12316 ft | 169 kts | 145° |
| 2026-04-24 11:47 | 46.68203 | 7.71819 | 12497 ft | 170 kts | 144° |
| 2026-04-24 11:47 | 46.67207 | 7.72754 | 12671 ft | 170 kts | 145° |
| 2026-04-24 11:47 | 46.66209 | 7.73691 | 12848 ft | 171 kts | 145° |
| 2026-04-24 11:48 | 46.65207 | 7.74633 | 13025 ft | 172 kts | 144° |
| 2026-04-24 11:48 | 46.64199 | 7.75578 | 13172 ft | 174 kts | 145° |
| 2026-04-24 11:48 | 46.63156 | 7.76553 | 13173 ft | 181 kts | 145° |
| 2026-04-24 11:48 | 46.62085 | 7.77555 | 13181 ft | 184 kts | 145° |
| 2026-04-24 11:49 | 46.61000 | 7.78570 | 13180 ft | 188 kts | 145° |
| 2026-04-24 11:49 | 46.59898 | 7.79608 | 13181 ft | 189 kts | 145° |
| 2026-04-24 11:49 | 46.58794 | 7.80645 | 13175 ft | 189 kts | 146° |
| 2026-04-24 11:49 | 46.57688 | 7.81676 | 13182 ft | 188 kts | 146° |
| 2026-04-24 11:50 | 46.56589 | 7.82703 | 13175 ft | 190 kts | 145° |
| 2026-04-24 11:50 | 46.55492 | 7.83759 | 13158 ft | 187 kts | 139° |
| 2026-04-24 11:50 | 46.54830 | 7.85283 | 13163 ft | 180 kts | 101° |
| 2026-04-24 11:50 | 46.54908 | 7.87076 | 13163 ft | 180 kts | 68° |
| 2026-04-24 11:51 | 46.55680 | 7.88484 | 13163 ft | 182 kts | 34° |
| 2026-04-24 11:51 | 46.56889 | 7.88990 | 13167 ft | 186 kts | 0° |
| 2026-04-24 11:51 | 46.58100 | 7.88347 | 13163 ft | 191 kts | 323° |
| 2026-04-24 11:51 | 46.58814 | 7.86735 | 13165 ft | 195 kts | 288° |
| 2026-04-24 11:52 | 46.59106 | 7.84816 | 13171 ft | 194 kts | 284° |
| 2026-04-24 11:52 | 46.59373 | 7.82896 | 13170 ft | 193 kts | 280° |
| 2026-04-24 11:52 | 46.59147 | 7.81005 | 13167 ft | 193 kts | 240° |
| 2026-04-24 11:52 | 46.58156 | 7.79746 | 13165 ft | 192 kts | 205° |
| 2026-04-24 11:53 | 46.56865 | 7.79448 | 13159 ft | 190 kts | 168° |
| 2026-04-24 11:53 | 46.55731 | 7.80352 | 13163 ft | 187 kts | 137° |
| 2026-04-24 11:53 | 46.54926 | 7.81786 | 13165 ft | 182 kts | 111° |
| 2026-04-24 11:53 | 46.54805 | 7.83593 | 13165 ft | 182 kts | 84° |
| 2026-04-24 11:54 | 46.54927 | 7.85426 | 13177 ft | 182 kts | 83° |
| 2026-04-24 11:54 | 46.55056 | 7.87268 | 13178 ft | 184 kts | 84° |
| 2026-04-24 11:54 | 46.55196 | 7.89122 | 13171 ft | 184 kts | 76° |
| 2026-04-24 11:54 | 46.55853 | 7.90654 | 13172 ft | 181 kts | 37° |
| 2026-04-24 11:55 | 46.57039 | 7.91152 | 13166 ft | 182 kts | 356° |
| 2026-04-24 11:55 | 46.58163 | 7.90359 | 13167 ft | 186 kts | 315° |
| 2026-04-24 11:55 | 46.58593 | 7.89279 | 13172 ft | 190 kts | 289° |
| 2026-04-24 11:55 | 46.58340 | 7.86794 | 13167 ft | 196 kts | 241° |
| 2026-04-24 11:56 | 46.57577 | 7.85163 | 13174 ft | 194 kts | 236° |
| 2026-04-24 11:56 | 46.57143 | 7.83349 | 13188 ft | 192 kts | 274° |
| 2026-04-24 11:56 | 46.57596 | 7.81585 | 13187 ft | 188 kts | 304° |
| 2026-04-24 11:56 | 46.57905 | 7.80376 | 13167 ft | 191 kts | 278° |
| 2026-04-24 11:57 | 46.57611 | 7.78546 | 13161 ft | 193 kts | 237° |
| 2026-04-24 11:57 | 46.56564 | 7.77388 | 13166 ft | 193 kts | 197° |
| 2026-04-24 11:57 | 46.55247 | 7.77453 | 13148 ft | 192 kts | 156° |
| 2026-04-24 11:57 | 46.54273 | 7.78680 | 13169 ft | 186 kts | 122° |
| 2026-04-24 11:58 | 46.53765 | 7.80393 | 13164 ft | 186 kts | 95° |
| 2026-04-24 11:58 | 46.54057 | 7.82156 | 13172 ft | 181 kts | 60° |
| 2026-04-24 11:58 | 46.54587 | 7.83831 | 13179 ft | 184 kts | 69° |
| 2026-04-24 11:58 | 46.55023 | 7.85571 | 13182 ft | 184 kts | 70° |
| 2026-04-24 11:59 | 46.55465 | 7.87324 | 13180 ft | 185 kts | 69° |
| 2026-04-24 11:59 | 46.56021 | 7.88991 | 13170 ft | 185 kts | 48° |
| 2026-04-24 11:59 | 46.57125 | 7.89853 | 13164 ft | 183 kts | 8° |
| 2026-04-24 11:59 | 46.58349 | 7.89437 | 13162 ft | 187 kts | 329° |
| 2026-04-24 12:00 | 46.59146 | 7.87985 | 13173 ft | 190 kts | 300° |
| 2026-04-24 12:00 | 46.59718 | 7.86245 | 13174 ft | 190 kts | 298° |
| 2026-04-24 12:00 | 46.60277 | 7.84499 | 13170 ft | 190 kts | 296° |
| 2026-04-24 12:00 | 46.60760 | 7.82711 | 13174 ft | 189 kts | 295° |
| 2026-04-24 12:01 | 46.61082 | 7.80851 | 13164 ft | 193 kts | 270° |
| 2026-04-24 12:01 | 46.61036 | 7.78922 | 13190 ft | 190 kts | 287° |
| 2026-04-24 12:01 | 46.61742 | 7.77364 | 13190 ft | 186 kts | 325° |
| 2026-04-24 12:01 | 46.62836 | 7.76361 | 13152 ft | 187 kts | 331° |
| 2026-04-24 12:02 | 46.63965 | 7.75329 | 12855 ft | 194 kts | 328° |
| 2026-04-24 12:02 | 46.65070 | 7.74217 | 12590 ft | 192 kts | 327° |
| 2026-04-24 12:02 | 46.66164 | 7.73115 | 12333 ft | 190 kts | 328° |
| 2026-04-24 12:02 | 46.67248 | 7.72031 | 12096 ft | 188 kts | 327° |
| 2026-04-24 12:03 | 46.68310 | 7.70964 | 11934 ft | 184 kts | 327° |
| 2026-04-24 12:03 | 46.69346 | 7.69923 | 11750 ft | 183 kts | 327° |
| 2026-04-24 12:03 | 46.70421 | 7.68849 | 11464 ft | 187 kts | 327° |
| 2026-04-24 12:03 | 46.71505 | 7.67764 | 11122 ft | 191 kts | 327° |
| 2026-04-24 12:04 | 46.72585 | 7.66680 | 10867 ft | 190 kts | 327° |
| 2026-04-24 12:04 | 46.73667 | 7.65590 | 10659 ft | 188 kts | 327° |
| 2026-04-24 12:04 | 46.74749 | 7.64504 | 10383 ft | 191 kts | 327° |
| 2026-04-24 12:04 | 46.75848 | 7.63403 | 10107 ft | 192 kts | 327° |
| 2026-04-24 12:05 | 46.76951 | 7.62293 | 9840 ft | 191 kts | 327° |
| 2026-04-24 12:05 | 46.78017 | 7.61215 | 9699 ft | 181 kts | 327° |
| 2026-04-24 12:05 | 46.79039 | 7.60179 | 9605 ft | 180 kts | 327° |
| 2026-04-24 12:05 | 46.80091 | 7.59122 | 9278 ft | 187 kts | 327° |
| 2026-04-24 12:06 | 46.81188 | 7.58025 | 8895 ft | 193 kts | 326° |
| 2026-04-24 12:06 | 46.82292 | 7.56910 | 8633 ft | 191 kts | 326° |
| 2026-04-24 12:06 | 46.83365 | 7.55826 | 8446 ft | 189 kts | 326° |
| 2026-04-24 12:06 | 46.84456 | 7.54724 | 8246 ft | 188 kts | 326° |
| 2026-04-24 12:07 | 46.85525 | 7.53642 | 7991 ft | 190 kts | 326° |
| 2026-04-24 12:07 | 46.86623 | 7.52536 | 7675 ft | 193 kts | 326° |
| 2026-04-24 12:07 | 46.87734 | 7.51416 | 7368 ft | 194 kts | 326° |
| 2026-04-24 12:07 | 46.88797 | 7.50337 | 7273 ft | 179 kts | 326° |
| 2026-04-24 12:08 | 46.89793 | 7.49325 | 7257 ft | 171 kts | 326° |
| 2026-04-24 12:08 | 46.90777 | 7.48322 | 7064 ft | 177 kts | 326° |
| 2026-04-24 12:08 | 46.91705 | 7.47068 | 6707 ft | 187 kts | 301° |
| 2026-04-24 12:08 | 46.92124 | 7.45279 | 6423 ft | 187 kts | 278° |
| 2026-04-24 12:09 | 46.91999 | 7.43382 | 6002 ft | 184 kts | 251° |
| 2026-04-24 12:09 | 46.91393 | 7.41850 | 5996 ft | 170 kts | 228° |
| 2026-04-24 12:09 | 46.90451 | 7.40813 | 5986 ft | 169 kts | 205° |
| 2026-04-24 12:09 | 46.89325 | 7.40399 | 5993 ft | 168 kts | 182° |
| 2026-04-24 12:10 | 46.88167 | 7.40579 | 5997 ft | 167 kts | 171° |
| 2026-04-24 12:10 | 46.87018 | 7.40842 | 5998 ft | 167 kts | 172° |
| 2026-04-24 12:10 | 46.85872 | 7.41104 | 5992 ft | 166 kts | 168° |
| 2026-04-24 12:11 | 46.83965 | 7.42953 | 5996 ft | 167 kts | 141° |
| 2026-04-24 12:11 | 46.83067 | 7.44039 | 5992 ft | 168 kts | 141° |
| 2026-04-24 12:11 | 46.82169 | 7.45137 | 5997 ft | 169 kts | 141° |
| 2026-04-24 12:11 | 46.81257 | 7.46242 | 5995 ft | 171 kts | 141° |
| 2026-04-24 12:12 | 46.80360 | 7.47336 | 5997 ft | 169 kts | 141° |
| 2026-04-24 12:12 | 46.79452 | 7.48444 | 6000 ft | 171 kts | 141° |
| 2026-04-24 12:12 | 46.78537 | 7.49554 | 5993 ft | 171 kts | 141° |
| 2026-04-24 12:12 | 46.77657 | 7.50719 | 5985 ft | 170 kts | 129° |
| 2026-04-24 12:13 | 46.77061 | 7.52207 | 5997 ft | 170 kts | 120° |
| 2026-04-24 12:13 | 46.76464 | 7.53697 | 5999 ft | 170 kts | 121° |
| 2026-04-24 12:13 | 46.75870 | 7.55187 | 5995 ft | 170 kts | 121° |
| 2026-04-24 12:13 | 46.75279 | 7.56679 | 6000 ft | 170 kts | 120° |
| 2026-04-24 12:14 | 46.74890 | 7.58307 | 5989 ft | 172 kts | 95° |
| 2026-04-24 12:14 | 46.75033 | 7.60017 | 5991 ft | 170 kts | 71° |
| 2026-04-24 12:14 | 46.75454 | 7.61601 | 5995 ft | 170 kts | 66° |
| 2026-04-24 12:14 | 46.76166 | 7.62955 | 5982 ft | 169 kts | 39° |
| 2026-04-24 12:15 | 46.77193 | 7.63772 | 5992 ft | 169 kts | 23° |
| 2026-04-24 12:15 | 46.78323 | 7.64262 | 5708 ft | 170 kts | 4° |
| 2026-04-24 12:15 | 46.79466 | 7.64002 | 5589 ft | 161 kts | 340° |
| 2026-04-24 12:15 | 46.80386 | 7.63152 | 5578 ft | 157 kts | 321° |
| 2026-04-24 12:16 | 46.81240 | 7.62103 | 5328 ft | 163 kts | 322° |
| 2026-04-24 12:16 | 46.82116 | 7.61061 | 5080 ft | 162 kts | 322° |
| 2026-04-24 12:16 | 46.82975 | 7.60010 | 4787 ft | 160 kts | 322° |
| 2026-04-24 12:16 | 46.83804 | 7.59001 | 4460 ft | 148 kts | 322° |
| 2026-04-24 12:17 | 46.84556 | 7.58065 | 4101 ft | 142 kts | 324° |
| 2026-04-24 12:17 | 46.85343 | 7.57151 | 3741 ft | 148 kts | 322° |
| 2026-04-24 12:17 | 46.86130 | 7.56223 | 3316 ft | 142 kts | 322° |
| 2026-04-24 12:17 | 46.86892 | 7.55352 | 2950 ft | 141 kts | 319° |
| 2026-04-24 12:18 | 46.87612 | 7.54386 | 2703 ft | 136 kts | 315° |
| 2026-04-24 12:18 | 46.88280 | 7.53468 | 2436 ft | 127 kts | 319° |
| 2026-04-24 12:18 | 46.88982 | 7.52712 | 2244 ft | 121 kts | 321° |
| 2026-04-24 12:18 | 46.89585 | 7.51954 | 2136 ft | 105 kts | 317° |
| 2026-04-24 12:19 | 46.90078 | 7.51335 | 1905 ft | 86 kts | 318° |
| 2026-04-24 12:19 | 46.90512 | 7.50811 | 1752 ft | 79 kts | 316° |
| 2026-04-24 12:19 | 46.90932 | 7.50298 | 1680 ft | 77 kts | 319° |
| 2026-04-24 12:19 | 46.91210 | 7.49952 | 1680 ft | 33 kts | 322° |
| 2026-04-24 12:20 | 46.91340 | 7.49796 | 1675 ft | 14 kts | 321° |
| 2026-04-24 12:20 | 46.91385 | 7.49803 | 1676 ft | 3 kts | 50° |
| 2026-04-24 12:20 | 46.91389 | 7.49809 | 1676 ft | 0 kts | 52° |
| 2026-04-24 12:20 | 46.91401 | 7.49830 | 1675 ft | 3 kts | 47° |
| 2026-04-24 12:21 | 46.91408 | 7.49850 | 1675 ft | 6 kts | 89° |
| 2026-04-24 12:21 | 46.91390 | 7.49886 | 1677 ft | 2 kts | 143° |
| 2026-04-24 12:21 | 46.91364 | 7.49918 | 1675 ft | 8 kts | 142° |
| 2026-04-24 12:21 | 46.91337 | 7.49950 | 1675 ft | 2 kts | 135° |
| 2026-04-24 12:22 | 46.91328 | 7.49962 | 1675 ft | 6 kts | 139° |
| 2026-04-24 12:22 | 46.91300 | 7.49997 | 1675 ft | 8 kts | 139° |
| 2026-04-24 12:22 | 46.91263 | 7.50041 | 1681 ft | 4 kts | 141° |
| 2026-04-24 12:22 | 46.91252 | 7.50054 | 1684 ft | 5 kts | 138° |
| 2026-04-24 12:23 | 46.91210 | 7.50107 | 1675 ft | 7 kts | 139° |
| 2026-04-24 12:23 | 46.91171 | 7.50154 | 1679 ft | 6 kts | 137° |
| 2026-04-24 12:23 | 46.91157 | 7.50203 | 1675 ft | 6 kts | 88° |
| 2026-04-24 12:23 | 46.91169 | 7.50244 | 1680 ft | 5 kts | 63° |
| 2026-04-24 12:24 | 46.91160 | 7.50267 | 1675 ft | 3 kts | 194° |
| 2026-04-24 12:24 | 46.91148 | 7.50244 | 1679 ft | 2 kts | 277° |
| 2026-04-24 12:24 | 46.91151 | 7.50226 | 1684 ft | 0 kts | 286° |
| 2026-04-24 12:24 | 46.91153 | 7.50218 | 1675 ft | 0 kts | 285° |